Nearby METAR Reports

 

KSJC - San Jose, California, USA
Distance from station: NØ 14km
Oppdatert: 09/07/2020 12:53
Klart
Klart
 Vind fra NNV
Vind: NNV 7 km/h
Temperatur: 14°C
Duggpunkt: 11°C
Fuktighet: 82%
Barometer: 1011.5 hPa
Clouds: Klart
Visibility: 16 km
2020/07/09 10:53 KSJC 091053Z AUTO 34004KT 10SM CLR 14/11 A2987 RMK AO2 SLP114 T01440106
KNUQ - Moffett Nas/Mtn, California, USA
Distance from station: N 14km
Oppdatert: 09/07/2020 13:35

 Vind fra calm
Vind: Stille
Temperatur: 14°C
Duggpunkt: 12°C
Fuktighet: 88%
Barometer: 1011.5 hPa
Visibility: 16 km
2020/07/09 11:35 KNUQ 091135Z AUTO 00000KT 10SM 14/12 A2987 RMK AO2
 
KPAO - Palo Alto, California, USA
Distance from station: NNV 23km
Oppdatert: 09/07/2020 00:47
NOT Current
Klart
Klart
 Vind fra N
Vind: N 31 km/h
Temperatur: 22°C
Duggpunkt: 16°C
Fuktighet: 69%
Barometer: 1010.8 hPa
Clouds: Klart
Visibility: 16 km
2020/07/08 22:47 KPAO 082247Z 35017KT 10SM SKC 22/16 A2985 RMK LAST
KRHV - San Jose/Reid, California, USA
Distance from station: ØNØ 19km
Oppdatert: 09/07/2020 06:50
NOT Current
Klart
Klart
 Vind fra NV
Vind: NV 11 km/h
Temperatur: 18°C
Duggpunkt: 11°C
Fuktighet: 64%
Barometer: 1012.2 hPa
Clouds: Klart
Visibility: 16 km
2020/07/09 04:50 KRHV 090450Z 31006KT 10SM SKC 18/11 A2989 RMK LAST
 
KOAK - Oakland, California, USA
Distance from station: NNV 50km
Oppdatert: 09/07/2020 12:53
Few Clouds
Few Clouds
 Vind fra SSV
Vind: SSV 6 km/h
Temperatur: 15°C
Duggpunkt: 11°C
Fuktighet: 77%
Barometer: 1012.2 hPa
Clouds: Few Clouds
Visibility: 16 km
Cloud details: Few Clouds 366 m
2020/07/09 10:53 KOAK 091053Z 20003KT 10SM FEW012 15/11 A2989 RMK AO2 SLP121 T01500106
KSQL - San Carlos Airpo, California, USA
Distance from station: NV 34km
Oppdatert: 09/07/2020 13:35
Klart
Klart
 Vind fra calm
Vind: Stille
Temperatur: 14°C
Duggpunkt: 10°C
Fuktighet: 77%
Barometer: 1011.9 hPa
Clouds: Klart
Visibility: 16 km
2020/07/09 11:35 KSQL 091135Z AUTO 00000KT 10SM CLR 14/10 A2988 RMK AO2
 
KSFO - San Francisco, California, USA
Distance from station: NV 49km
Oppdatert: 09/07/2020 12:56
Few Clouds
Few Clouds
 Vind fra VNV
Vind: VNV 11 km/h
Temperatur: 13°C
Duggpunkt: 10°C
Fuktighet: 82%
Barometer: 1011.5 hPa
Clouds: Few Clouds
Visibility: 16 km
Cloud details: Few Clouds 335 m
2020/07/09 10:56 KSFO 091056Z 30006KT 10SM FEW011 13/10 A2987 RMK AO2 SLP115 T01330100
KE16 - San Martin, California, USA
Distance from station: ØSØ 43km
Oppdatert: 09/06/2020 22:20
NOT Current
Klart
Klart
 Vind fra NV
Vind: NV 17 km/h
Temperatur: 30°C
Duggpunkt: 2°C
Fuktighet: 17%
Barometer: 1020.3 hPa
Clouds: Klart
Visibility: 16 km
2020/06/09 20:20 KE16 092020Z AUTO 31009KT 290V350 10SM CLR 30/02 A3013 RMK AO2 PWINO PNO
 
KWVI - Watsonville, California, USA
Distance from station: SSØ 44km
Oppdatert: 09/07/2020 13:33
Mist, Overskyet
Mist, Overskyet
 Vind fra calm
Vind: Stille
Temperatur: 12°C
Duggpunkt: 12°C
Fuktighet: 100%
Barometer: 1012.5 hPa
Oversikt: Mist
Clouds: Overskyet
Visibility: 4 km
Cloud details: Overskyet 91 m
2020/07/09 11:33 KWVI 091133Z AUTO 00000KT 2 1/2SM BR OVC003 12/12 A2990 RMK AO2 T01220122
KHAF - Half Moon Bay, California, USA
Distance from station: VNV 50km
Oppdatert: 09/07/2020 13:40
Mist, Overskyet
Mist, Overskyet
 Vind fra S
Vind: S 9 km/h
Temperatur: 12°C
Duggpunkt: 10°C
Fuktighet: 88%
Barometer: 1012.5 hPa
Oversikt: Mist
Clouds: Overskyet
Visibility: 8 km
Cloud details: Overskyet 274 m
2020/07/09 11:40 KHAF 091140Z AUTO 17005KT 5SM BR OVC009 12/10 A2990 RMK AO2
 
KHWD - Hayward, California, USA
Distance from station: N 44km
Oppdatert: 09/07/2020 12:54
Klart
Klart
 Vind fra NØ
Vind: NØ 7 km/h
Temperatur: 14°C
Duggpunkt: 10°C
Fuktighet: 77%
Barometer: 1011.5 hPa
Clouds: Klart
Visibility: 16 km
2020/07/09 10:54 KHWD 091054Z AUTO 04004KT 10SM CLR 14/10 A2987 RMK AO2 SLP124 T01390100
KLVK - Livermore, California, USA
Distance from station: NNØ 51km
Oppdatert: 09/07/2020 12:53
Klart
Klart
 Vind fra V
Vind: V 6 km/h
Temperatur: 13°C
Duggpunkt: 10°C
Fuktighet: 82%
Barometer: 1011.2 hPa
Clouds: Klart
Visibility: 16 km
2020/07/09 10:53 KLVK 091053Z AUTO 27003KT 10SM CLR 13/10 A2986 RMK AO2 SLP108 T01330100